Time;durP1;ratioP1;P1;durP2;ratioP2;P2;SDS_P1;SDS_P2;PMS_P1;PMS_P2;Temp;Humidity;BMP_temperature;BMP_pressure;BME280_temperature;BME280_humidity;BME280_pressure;Samples;Min_cycle;Max_cycle;Signal;HPM_P1;HPM_P2
2023/09/12 00:01:04;;;;;;;6.18;4.20;;;;;;;;;;5818092;28;20065;-75
2023/09/12 00:03:56;;;;;;;10.80;4.63;;;;;;;;;;5817761;28;20054;-75
2023/09/12 00:06:47;;;;;;;9.65;4.63;;;;;;;;;;5818848;28;20069;-76
2023/09/12 00:09:37;;;;;;;11.10;5.35;;;;;;;;;;5818633;28;20450;-76
2023/09/12 00:12:28;;;;;;;5.22;4.15;;;;;;;;;;5818697;28;20051;-75
2023/09/12 00:15:19;;;;;;;5.28;3.83;;;;;;;;;;5818684;28;20390;-76
2023/09/12 00:18:10;;;;;;;6.53;4.55;;;;;;;;;;5818664;28;20082;-76
2023/09/12 00:21:01;;;;;;;8.60;5.10;;;;;;;;;;5818652;28;20042;-76
2023/09/12 00:23:52;;;;;;;7.13;4.72;;;;;;;;;;5818732;28;20050;-76
2023/09/12 00:26:43;;;;;;;6.93;4.85;;;;;;;;;;5818436;28;20050;-76
2023/09/12 00:29:34;;;;;;;8.27;5.15;;;;;;;;;;5818195;28;20050;-78
2023/09/12 00:32:24;;;;;;;13.18;5.22;;;;;;;;;;5817431;28;20494;-75
2023/09/12 00:35:15;;;;;;;11.45;4.47;;;;;;;;;;5818483;28;20501;-76
2023/09/12 00:38:06;;;;;;;4.68;3.25;;;;;;;;;;5818339;28;20050;-76
2023/09/12 00:40:57;;;;;;;6.13;4.45;;;;;;;;;;5818672;28;20057;-76
2023/09/12 00:43:48;;;;;;;7.30;3.95;;;;;;;;;;5818123;28;20050;-76
2023/09/12 00:46:39;;;;;;;5.20;3.80;;;;;;;;;;5818103;28;20629;-76
2023/09/12 00:49:31;;;;;;;6.97;4.07;;;;;;;;;;5818070;28;20046;-76
2023/09/12 00:52:26;;;;;;;4.60;3.40;;;;;;;;;;5816734;28;20050;-75
2023/09/12 00:55:17;;;;;;;10.27;4.07;;;;;;;;;;5818029;28;20058;-76
2023/09/12 00:58:08;;;;;;;9.35;4.40;;;;;;;;;;5816805;28;20409;-76
2023/09/12 01:00:59;;;;;;;7.25;3.90;;;;;;;;;;5823240;28;20126;-78
2023/09/12 01:03:50;;;;;;;5.80;4.18;;;;;;;;;;5821408;28;20532;-76
2023/09/12 01:06:41;;;;;;;7.55;5.05;;;;;;;;;;5822501;28;20050;-75
2023/09/12 01:09:33;;;;;;;13.93;4.25;;;;;;;;;;5822086;28;20073;-76
2023/09/12 01:12:24;;;;;;;15.45;5.15;;;;;;;;;;5820903;28;20066;-75
2023/09/12 01:15:15;;;;;;;7.72;4.85;;;;;;;;;;5820923;28;20054;-75
2023/09/12 01:18:06;;;;;;;6.13;4.47;;;;;;;;;;5822232;28;20138;-77
2023/09/12 01:21:17;;;;;;;6.20;3.55;;;;;;;;;;5822605;28;20074;-75
2023/09/12 01:24:26;;;;;;;7.97;4.95;;;;;;;;;;5821125;28;20366;-77
2023/09/12 01:27:27;;;;;;;13.25;5.32;;;;;;;;;;5822031;28;20124;-75
2023/09/12 01:30:22;;;;;;;8.35;5.03;;;;;;;;;;5822013;28;20077;-76
2023/09/12 01:33:14;;;;;;;4.28;3.47;;;;;;;;;;5820659;28;20038;-76
2023/09/12 01:36:04;;;;;;;6.22;3.92;;;;;;;;;;5820555;28;20043;-76
2023/09/12 01:38:55;;;;;;;5.63;4.38;;;;;;;;;;5822142;28;20046;-76
2023/09/12 01:41:48;;;;;;;6.18;4.18;;;;;;;;;;5821844;28;20413;-76
2023/09/12 01:44:39;;;;;;;6.32;4.45;;;;;;;;;;5820374;28;20394;-75
2023/09/12 01:47:31;;;;;;;5.40;4.43;;;;;;;;;;5820181;28;20046;-75
2023/09/12 01:50:23;;;;;;;7.32;3.65;;;;;;;;;;5820044;28;20053;-77
2023/09/12 01:53:14;;;;;;;7.18;4.05;;;;;;;;;;5820123;28;20046;-75
2023/09/12 01:56:05;;;;;;;6.82;4.28;;;;;;;;;;5820328;28;20046;-75
2023/09/12 01:58:57;;;;;;;9.48;4.65;;;;;;;;;;5821922;28;20482;-75
2023/09/12 02:01:47;;;;;;;9.30;6.22;;;;;;;;;;5819982;28;20102;-75
2023/09/12 02:04:38;;;;;;;6.57;3.97;;;;;;;;;;5820810;28;20148;-76
2023/09/12 02:07:36;;;;;;;6.22;3.60;;;;;;;;;;5821139;28;20054;-78
2023/09/12 02:10:27;;;;;;;5.32;3.88;;;;;;;;;;5819000;28;20056;-76
2023/09/12 02:13:18;;;;;;;8.40;4.35;;;;;;;;;;5820962;28;20061;-75
2023/09/12 02:16:08;;;;;;;9.68;4.40;;;;;;;;;;5820689;28;20046;-75
2023/09/12 02:18:59;;;;;;;4.78;3.47;;;;;;;;;;5820204;28;20101;-77
2023/09/12 02:21:50;;;;;;;5.70;3.50;;;;;;;;;;5820963;28;20429;-75
2023/09/12 02:24:41;;;;;;;6.53;3.70;;;;;;;;;;5819267;28;20069;-76
2023/09/12 02:27:32;;;;;;;6.38;3.88;;;;;;;;;;5820737;28;20046;-77
2023/09/12 02:30:23;;;;;;;10.27;5.07;;;;;;;;;;5820650;28;20046;-76
2023/09/12 02:33:13;;;;;;;7.07;4.45;;;;;;;;;;5820490;28;20042;-76
2023/09/12 02:36:05;;;;;;;3.47;3.15;;;;;;;;;;5820804;28;20049;-77
2023/09/12 02:38:56;;;;;;;4.78;4.18;;;;;;;;;;5820910;28;20069;-76
2023/09/12 02:41:47;;;;;;;5.63;3.95;;;;;;;;;;5820556;28;20046;-77
2023/09/12 02:44:38;;;;;;;4.72;3.42;;;;;;;;;;5818311;28;20165;-77
2023/09/12 02:47:28;;;;;;;5.35;4.38;;;;;;;;;;5819021;28;20057;-75
2023/09/12 02:50:19;;;;;;;11.18;4.45;;;;;;;;;;5820299;28;20073;-75
2023/09/12 02:53:10;;;;;;;4.50;3.78;;;;;;;;;;5819974;28;20043;-75
2023/09/12 02:56:01;;;;;;;6.75;3.80;;;;;;;;;;5819730;28;20042;-76
2023/09/12 02:58:51;;;;;;;6.65;3.70;;;;;;;;;;5820705;28;20052;-75
2023/09/12 03:01:42;;;;;;;7.25;3.97;;;;;;;;;;5819805;28;20050;-76
2023/09/12 03:04:35;;;;;;;7.20;3.25;;;;;;;;;;5819818;28;20054;-75
2023/09/12 03:07:26;;;;;;;6.03;3.90;;;;;;;;;;5819835;28;20053;-75
2023/09/12 03:10:17;;;;;;;6.25;4.28;;;;;;;;;;5818021;28;20053;-75
2023/09/12 03:13:07;;;;;;;7.28;4.38;;;;;;;;;;5818410;28;20532;-76
2023/09/12 03:15:58;;;;;;;5.78;3.53;;;;;;;;;;5818590;28;20051;-76
2023/09/12 03:18:49;;;;;;;6.63;4.53;;;;;;;;;;5819466;28;20046;-75
2023/09/12 03:21:40;;;;;;;11.32;5.07;;;;;;;;;;5818037;28;20098;-76
2023/09/12 03:24:31;;;;;;;7.47;4.65;;;;;;;;;;5819476;28;20057;-76
2023/09/12 03:27:22;;;;;;;5.38;4.22;;;;;;;;;;5819329;28;20050;-76
2023/09/12 03:30:12;;;;;;;8.07;4.82;;;;;;;;;;5819391;28;20137;-76
2023/09/12 03:33:04;;;;;;;4.93;3.50;;;;;;;;;;5819406;28;20049;-76
2023/09/12 03:35:55;;;;;;;5.82;3.90;;;;;;;;;;5820009;28;20500;-76
2023/09/12 03:38:46;;;;;;;8.88;4.40;;;;;;;;;;5817715;28;20039;-75
2023/09/12 03:41:37;;;;;;;5.57;3.90;;;;;;;;;;5818679;28;20046;-76
2023/09/12 03:44:28;;;;;;;7.88;5.25;;;;;;;;;;5818798;28;20078;-76
2023/09/12 03:47:18;;;;;;;7.07;3.95;;;;;;;;;;5817438;28;20069;-75
2023/09/12 03:50:09;;;;;;;7.18;4.85;;;;;;;;;;5819113;28;20465;-76
2023/09/12 03:53:00;;;;;;;6.20;4.53;;;;;;;;;;5819433;28;20503;-76
2023/09/12 03:55:52;;;;;;;8.35;4.63;;;;;;;;;;5818832;28;20038;-75
2023/09/12 03:58:42;;;;;;;5.60;3.97;;;;;;;;;;5818549;28;20495;-76
2023/09/12 04:01:34;;;;;;;4.93;3.88;;;;;;;;;;5817137;28;20046;-75
2023/09/12 04:04:25;;;;;;;8.20;4.65;;;;;;;;;;5816877;28;20050;-76
2023/09/12 04:07:16;;;;;;;5.97;3.75;;;;;;;;;;5817849;28;20139;-77
2023/09/12 04:10:08;;;;;;;6.55;3.97;;;;;;;;;;5818378;28;20042;-78
2023/09/12 04:12:58;;;;;;;4.68;3.72;;;;;;;;;;5819070;28;20046;-76
2023/09/12 04:15:49;;;;;;;11.02;4.72;;;;;;;;;;5818814;28;20084;-75
2023/09/12 04:18:40;;;;;;;4.05;3.55;;;;;;;;;;5818209;28;20097;-76
2023/09/12 04:21:31;;;;;;;7.60;3.70;;;;;;;;;;5818486;28;20073;-75
2023/09/12 04:24:22;;;;;;;5.28;3.38;;;;;;;;;;5818004;28;20038;-76
2023/09/12 04:27:13;;;;;;;4.30;3.38;;;;;;;;;;5818315;28;20556;-75
2023/09/12 04:30:05;;;;;;;4.28;3.75;;;;;;;;;;5817151;28;20377;-75
2023/09/12 04:32:55;;;;;;;6.47;4.78;;;;;;;;;;5817274;28;20043;-75
2023/09/12 04:35:46;;;;;;;4.43;3.97;;;;;;;;;;5818260;28;20053;-76
2023/09/12 04:38:37;;;;;;;7.90;3.90;;;;;;;;;;5818095;28;20053;-76
2023/09/12 04:41:28;;;;;;;5.85;4.03;;;;;;;;;;5816974;28;20046;-76
2023/09/12 04:44:19;;;;;;;11.52;3.70;;;;;;;;;;5817785;28;20057;-75
2023/09/12 04:47:09;;;;;;;4.50;3.40;;;;;;;;;;5817952;28;20054;-77
2023/09/12 04:50:01;;;;;;;19.02;4.18;;;;;;;;;;5818434;28;20043;-76
2023/09/12 04:52:52;;;;;;;5.63;4.75;;;;;;;;;;5818085;28;20049;-76
2023/09/12 04:55:43;;;;;;;6.30;3.70;;;;;;;;;;5817884;28;20042;-75
2023/09/12 04:58:33;;;;;;;4.95;3.50;;;;;;;;;;5816723;28;20128;-76
2023/09/12 05:01:25;;;;;;;4.80;3.58;;;;;;;;;;5817987;28;20050;-77
2023/09/12 05:04:17;;;;;;;5.03;3.72;;;;;;;;;;5817646;28;20414;-75
2023/09/12 05:07:07;;;;;;;6.03;4.35;;;;;;;;;;5817621;28;20046;-76
2023/09/12 05:09:58;;;;;;;5.70;3.95;;;;;;;;;;5818475;28;20049;-76
2023/09/12 05:12:49;;;;;;;10.23;4.55;;;;;;;;;;5817699;28;20054;-75
2023/09/12 05:15:41;;;;;;;5.35;3.10;;;;;;;;;;5817648;28;20046;-76
2023/09/12 05:18:32;;;;;;;5.93;4.35;;;;;;;;;;5816474;28;20046;-75
2023/09/12 05:21:23;;;;;;;5.65;3.83;;;;;;;;;;5817794;28;20382;-76
2023/09/12 05:24:14;;;;;;;10.80;4.60;;;;;;;;;;5817640;28;20050;-74
2023/09/12 05:27:05;;;;;;;6.50;3.80;;;;;;;;;;5817631;28;20503;-77
2023/09/12 05:29:56;;;;;;;5.43;3.55;;;;;;;;;;5818341;28;20066;-77
2023/09/12 05:32:47;;;;;;;9.18;4.82;;;;;;;;;;5817594;28;20051;-76
2023/09/12 05:35:38;;;;;;;8.15;4.32;;;;;;;;;;5816242;28;20132;-74
2023/09/12 05:38:29;;;;;;;6.05;3.80;;;;;;;;;;5817300;28;20049;-75
2023/09/12 05:41:19;;;;;;;4.25;3.63;;;;;;;;;;5817579;28;20047;-75
2023/09/12 05:44:12;;;;;;;6.70;3.92;;;;;;;;;;5817040;28;20061;-77
2023/09/12 05:47:03;;;;;;;10.18;4.70;;;;;;;;;;5820415;28;20070;-76
2023/09/12 05:49:55;;;;;;;5.47;3.97;;;;;;;;;;5820709;28;20374;-77
2023/09/12 05:52:46;;;;;;;9.00;5.70;;;;;;;;;;5821423;28;20133;-76
2023/09/12 05:55:37;;;;;;;14.45;6.32;;;;;;;;;;5821450;28;20057;-75
2023/09/12 05:58:27;;;;;;;9.73;6.28;;;;;;;;;;5821201;28;20059;-75
2023/09/12 06:01:18;;;;;;;12.30;6.63;;;;;;;;;;5819791;28;20049;-75
2023/09/12 06:04:09;;;;;;;8.30;5.82;;;;;;;;;;5820886;28;20496;-76
2023/09/12 06:07:03;;;;;;;10.85;5.03;;;;;;;;;;5821265;28;20050;-76
2023/09/12 06:09:53;;;;;;;9.57;6.38;;;;;;;;;;5820129;28;20057;-76
2023/09/12 06:12:44;;;;;;;9.52;7.25;;;;;;;;;;5820867;28;20062;-75
2023/09/12 06:15:35;;;;;;;13.43;5.72;;;;;;;;;;5820947;28;20080;-75
2023/09/12 06:18:28;;;;;;;10.68;6.57;;;;;;;;;;5820846;28;20149;-76
2023/09/12 06:21:21;;;;;;;7.20;5.70;;;;;;;;;;5820747;28;20046;-75
2023/09/12 06:24:19;;;;;;;11.85;5.75;;;;;;;;;;5820564;28;20042;-75
2023/09/12 06:27:13;;;;;;;7.32;5.03;;;;;;;;;;5820569;28;20461;-75
2023/09/12 06:30:05;;;;;;;12.73;7.28;;;;;;;;;;5820668;28;20129;-75
2023/09/12 06:32:55;;;;;;;11.50;5.97;;;;;;;;;;5821093;28;20069;-76
2023/09/12 06:35:50;;;;;;;11.93;5.50;;;;;;;;;;5820575;28;20050;-76
2023/09/12 06:38:40;;;;;;;12.93;6.70;;;;;;;;;;5818965;28;20062;-75
2023/09/12 06:41:32;;;;;;;14.93;6.65;;;;;;;;;;5820425;28;20493;-76
2023/09/12 06:44:22;;;;;;;8.77;5.57;;;;;;;;;;5818894;28;20046;-76
2023/09/12 06:47:13;;;;;;;10.30;6.45;;;;;;;;;;5820162;28;20494;-75
2023/09/12 06:50:04;;;;;;;17.38;6.90;;;;;;;;;;5820246;28;20049;-77
2023/09/12 06:53:01;;;;;;;37.63;6.20;;;;;;;;;;5819918;28;20089;-75
2023/09/12 06:55:52;;;;;;;17.23;5.40;;;;;;;;;;5820473;28;20117;-75
2023/09/12 06:58:42;;;;;;;19.65;5.55;;;;;;;;;;5819719;28;20065;-76
2023/09/12 07:01:34;;;;;;;11.20;6.35;;;;;;;;;;5820034;28;20394;-76
2023/09/12 07:04:25;;;;;;;7.20;3.63;;;;;;;;;;5818422;28;20046;-77
2023/09/12 07:07:16;;;;;;;9.02;4.35;;;;;;;;;;5818259;28;20054;-76
2023/09/12 07:10:07;;;;;;;10.73;4.40;;;;;;;;;;5819616;28;20053;-75
2023/09/12 07:13:13;;;;;;;7.57;4.03;;;;;;;;;;5818402;28;20102;-76
2023/09/12 07:16:05;;;;;;;8.63;4.93;;;;;;;;;;5819713;28;20046;-76
2023/09/12 07:18:56;;;;;;;12.20;4.75;;;;;;;;;;5819884;28;20048;-77
2023/09/12 07:21:47;;;;;;;8.48;4.45;;;;;;;;;;5819591;28;20050;-75
2023/09/12 07:24:38;;;;;;;7.53;4.13;;;;;;;;;;5817948;28;20050;-76
2023/09/12 07:27:29;;;;;;;40.28;3.38;;;;;;;;;;5818050;28;20046;-75
2023/09/12 07:30:20;;;;;;;4.90;3.45;;;;;;;;;;5819402;28;20047;-76
2023/09/12 07:33:11;;;;;;;6.28;3.35;;;;;;;;;;5819302;28;20054;-76
2023/09/12 07:36:03;;;;;;;6.28;3.67;;;;;;;;;;5818973;28;20046;-75
2023/09/12 07:38:53;;;;;;;7.32;3.78;;;;;;;;;;5819421;28;20046;-75
2023/09/12 07:41:44;;;;;;;6.07;2.72;;;;;;;;;;5819004;28;20042;-76
2023/09/12 07:44:35;;;;;;;6.25;3.28;;;;;;;;;;5818581;28;20046;-77
2023/09/12 07:47:26;;;;;;;8.75;3.47;;;;;;;;;;5817623;28;20046;-76
2023/09/12 07:50:17;;;;;;;8.20;3.60;;;;;;;;;;5818988;28;20260;-75
2023/09/12 07:53:08;;;;;;;5.60;2.65;;;;;;;;;;5818952;28;20142;-76
2023/09/12 07:56:01;;;;;;;4.82;2.80;;;;;;;;;;5819323;28;20414;-75
2023/09/12 07:58:52;;;;;;;11.48;3.78;;;;;;;;;;5818854;28;20049;-76
2023/09/12 08:01:43;;;;;;;4.85;3.03;;;;;;;;;;5818834;28;20050;-75
2023/09/12 08:04:34;;;;;;;8.25;3.10;;;;;;;;;;5818603;28;20050;-75
2023/09/12 08:07:25;;;;;;;3.88;2.67;;;;;;;;;;5818572;28;20057;-76
2023/09/12 08:10:16;;;;;;;6.07;2.42;;;;;;;;;;5817898;28;20446;-76
2023/09/12 08:13:06;;;;;;;3.30;1.92;;;;;;;;;;5818371;28;20049;-75
2023/09/12 08:15:57;;;;;;;2.75;1.75;;;;;;;;;;5818803;28;20068;-77
2023/09/12 08:18:48;;;;;;;3.05;2.15;;;;;;;;;;5818606;28;20487;-77
2023/09/12 08:21:39;;;;;;;4.13;2.67;;;;;;;;;;5818581;28;20046;-75
2023/09/12 08:24:30;;;;;;;3.70;2.13;;;;;;;;;;5818195;28;20192;-77
2023/09/12 08:27:21;;;;;;;6.00;3.13;;;;;;;;;;5818211;28;20057;-76
2023/09/12 08:30:13;;;;;;;2.97;1.80;;;;;;;;;;5818409;28;20046;-76
2023/09/12 08:33:07;;;;;;;3.67;1.98;;;;;;;;;;5818134;28;20042;-76
2023/09/12 08:35:58;;;;;;;6.15;2.33;;;;;;;;;;5818898;28;20049;-76
2023/09/12 08:38:49;;;;;;;6.10;2.33;;;;;;;;;;5817988;28;20042;-77
2023/09/12 08:41:40;;;;;;;3.22;2.08;;;;;;;;;;5816968;28;20042;-76
2023/09/12 08:44:30;;;;;;;3.97;2.70;;;;;;;;;;5817884;28;20385;-76
2023/09/12 08:47:24;;;;;;;3.50;1.85;;;;;;;;;;5817901;28;20057;-76
2023/09/12 08:50:16;;;;;;;1.80;1.55;;;;;;;;;;5818127;28;20078;-78
2023/09/12 08:53:07;;;;;;;5.47;2.33;;;;;;;;;;5817963;28;20531;-76
2023/09/12 08:56:00;;;;;;;1.92;1.40;;;;;;;;;;5817087;28;20058;-77
2023/09/12 08:58:51;;;;;;;2.83;2.10;;;;;;;;;;5818384;28;20069;-77
2023/09/12 09:01:43;;;;;;;3.53;1.77;;;;;;;;;;5816483;28;20090;-76
2023/09/12 09:04:35;;;;;;;1.75;1.17;;;;;;;;;;5817607;28;20054;-77
2023/09/12 09:07:28;;;;;;;3.03;1.75;;;;;;;;;;5816587;28;20042;-76
2023/09/12 09:10:22;;;;;;;7.35;2.00;;;;;;;;;;5817881;28;20426;-76
2023/09/12 09:13:27;;;;;;;2.67;1.77;;;;;;;;;;5816878;28;20058;-77
2023/09/12 09:16:21;;;;;;;3.45;0.90;;;;;;;;;;5817799;28;20050;-81
2023/09/12 09:19:12;;;;;;;3.85;1.65;;;;;;;;;;5817718;28;20054;-77
2023/09/12 09:22:06;;;;;;;3.28;1.70;;;;;;;;;;5822128;28;20047;-76
2023/09/12 09:25:12;;;;;;;5.07;1.88;;;;;;;;;;5822655;28;20394;-76
2023/09/12 09:28:19;;;;;;;2.88;1.55;;;;;;;;;;5821575;28;20118;-76
2023/09/12 09:31:12;;;;;;;2.42;1.40;;;;;;;;;;5820640;28;20050;-76
2023/09/12 09:34:03;;;;;;;3.03;1.63;;;;;;;;;;5822036;28;20061;-76
2023/09/12 09:36:57;;;;;;;2.85;1.90;;;;;;;;;;5822361;28;20073;-76
2023/09/12 09:39:51;;;;;;;1.40;1.30;;;;;;;;;;5821747;28;20059;-76
2023/09/12 09:42:43;;;;;;;2.78;1.80;;;;;;;;;;5821767;28;20049;-75
2023/09/12 09:45:47;;;;;;;2.80;1.98;;;;;;;;;;5821488;28;20120;-77
2023/09/12 09:48:38;;;;;;;1.52;1.05;;;;;;;;;;5821451;28;20047;-78
2023/09/12 09:51:33;;;;;;;4.30;1.48;;;;;;;;;;5821585;28;20043;-75
2023/09/12 09:54:25;;;;;;;5.93;1.20;;;;;;;;;;5821179;28;20049;-77
2023/09/12 09:57:16;;;;;;;9.80;2.28;;;;;;;;;;5821109;28;20049;-77
2023/09/12 10:00:11;;;;;;;2.95;1.70;;;;;;;;;;5821404;28;20042;-77
2023/09/12 10:03:05;;;;;;;3.83;2.00;;;;;;;;;;5821380;28;20399;-75
2023/09/12 10:05:59;;;;;;;2.75;1.27;;;;;;;;;;5821534;28;20050;-77
2023/09/12 10:08:52;;;;;;;3.13;2.30;;;;;;;;;;5821145;28;20053;-76
2023/09/12 10:11:46;;;;;;;3.30;2.05;;;;;;;;;;5819738;28;20042;-77
2023/09/12 10:14:39;;;;;;;2.92;1.70;;;;;;;;;;5814356;28;20412;-76
2023/09/12 10:17:37;;;;;;;3.85;1.42;;;;;;;;;;5819498;28;20050;-76
2023/09/12 10:20:38;;;;;;;2.45;1.38;;;;;;;;;;5819719;28;20428;-77
2023/09/12 10:23:41;;;;;;;3.08;2.30;;;;;;;;;;5820545;28;20049;-77
2023/09/12 10:26:34;;;;;;;4.00;1.60;;;;;;;;;;5820711;28;20053;-76
2023/09/12 10:29:25;;;;;;;4.43;1.80;;;;;;;;;;5820587;28;20066;-76
2023/09/12 10:32:17;;;;;;;2.67;1.45;;;;;;;;;;5819856;28;20386;-76
2023/09/12 10:35:08;;;;;;;9.57;2.08;;;;;;;;;;5820589;28;20049;-76
2023/09/12 10:38:05;;;;;;;2.30;1.35;;;;;;;;;;5819934;28;20050;-77
2023/09/12 10:40:57;;;;;;;3.38;1.92;;;;;;;;;;5819512;28;20049;-76
2023/09/12 10:43:51;;;;;;;2.30;1.85;;;;;;;;;;5820469;28;20038;-75
2023/09/12 10:46:45;;;;;;;3.67;2.33;;;;;;;;;;5820206;28;20054;-77
2023/09/12 10:49:37;;;;;;;3.17;1.80;;;;;;;;;;5818951;28;20051;-78
2023/09/12 10:52:29;;;;;;;2.65;1.73;;;;;;;;;;5818814;28;20413;-77
2023/09/12 10:55:20;;;;;;;2.50;1.40;;;;;;;;;;5820223;28;20124;-76
2023/09/12 10:58:11;;;;;;;2.15;1.40;;;;;;;;;;5820268;28;20053;-76
2023/09/12 11:01:27;;;;;;;5.82;2.65;;;;;;;;;;5825462;28;20049;-77
2023/09/12 11:04:19;;;;;;;4.07;2.28;;;;;;;;;;5819883;28;20053;-76
2023/09/12 11:07:43;;;;;;;3.45;2.13;;;;;;;;;;5819758;28;20123;-76
2023/09/12 11:10:33;;;;;;;3.67;1.55;;;;;;;;;;5819636;28;20410;-75
2023/09/12 11:13:41;;;;;;;2.28;1.50;;;;;;;;;;5801976;28;20045;-75
2023/09/12 11:16:33;;;;;;;3.53;2.03;;;;;;;;;;5819687;28;20121;-75
2023/09/12 11:19:25;;;;;;;2.90;1.60;;;;;;;;;;5818699;28;20121;-76
2023/09/12 11:22:31;;;;;;;3.65;1.48;;;;;;;;;;5819277;28;20126;-76
2023/09/12 11:25:26;;;;;;;2.53;1.42;;;;;;;;;;5817794;28;20401;-76
2023/09/12 11:28:19;;;;;;;2.65;1.80;;;;;;;;;;5817679;28;20466;-76
2023/09/12 11:31:10;;;;;;;3.90;2.17;;;;;;;;;;5818947;28;20073;-74
2023/09/12 11:34:01;;;;;;;2.50;1.63;;;;;;;;;;5819241;28;20053;-76
2023/09/12 11:37:00;;;;;;;1.67;1.08;;;;;;;;;;5818310;28;20053;-75
2023/09/12 11:39:52;;;;;;;2.55;1.30;;;;;;;;;;5817990;28;20068;-78
2023/09/12 11:42:46;;;;;;;3.22;1.58;;;;;;;;;;5817887;28;20061;-76
2023/09/12 11:45:43;;;;;;;3.85;1.88;;;;;;;;;;5819326;28;20508;-78
2023/09/12 11:48:34;;;;;;;2.17;1.35;;;;;;;;;;5801920;28;20050;-76
2023/09/12 11:51:26;;;;;;;7.88;2.08;;;;;;;;;;5819072;28;20133;-76
2023/09/12 11:54:20;;;;;;;5.28;1.65;;;;;;;;;;5818863;28;20144;-76
2023/09/12 11:57:14;;;;;;;5.35;1.63;;;;;;;;;;5817468;28;20053;-75
2023/09/12 12:00:08;;;;;;;9.73;1.90;;;;;;;;;;5818840;28;20050;-78
2023/09/12 12:02:59;;;;;;;3.03;1.98;;;;;;;;;;5819243;28;20042;-76
2023/09/12 12:05:51;;;;;;;2.25;1.73;;;;;;;;;;5817705;28;20038;-75
2023/09/12 12:08:42;;;;;;;5.30;2.72;;;;;;;;;;5814248;28;20039;-76
2023/09/12 12:11:33;;;;;;;2.63;1.38;;;;;;;;;;5817424;28;20047;-76
2023/09/12 12:14:25;;;;;;;3.45;1.80;;;;;;;;;;5804907;28;20058;-77
2023/09/12 12:17:16;;;;;;;4.97;1.60;;;;;;;;;;5778654;28;20051;-75
2023/09/12 12:20:11;;;;;;;7.82;1.70;;;;;;;;;;5798855;28;20050;-75
2023/09/12 12:23:02;;;;;;;4.07;2.33;;;;;;;;;;5817455;28;20084;-76
2023/09/12 12:25:53;;;;;;;7.32;2.05;;;;;;;;;;5794476;28;20050;-75
2023/09/12 12:28:44;;;;;;;2.50;1.40;;;;;;;;;;5795151;28;20046;-76
2023/09/12 12:31:36;;;;;;;4.57;1.88;;;;;;;;;;5811838;28;20405;-77
2023/09/12 12:34:27;;;;;;;2.63;1.63;;;;;;;;;;5803937;28;20101;-75
2023/09/12 12:37:38;;;;;;;3.78;2.10;;;;;;;;;;5795376;28;20181;-77
2023/09/12 12:40:29;;;;;;;4.43;1.73;;;;;;;;;;5802342;28;20061;-75
2023/09/12 12:43:31;;;;;;;5.47;2.13;;;;;;;;;;5813344;28;20047;-76
2023/09/12 12:46:22;;;;;;;4.90;2.17;;;;;;;;;;5793864;28;20047;-75
2023/09/12 12:49:15;;;;;;;3.58;2.00;;;;;;;;;;5795033;28;20051;-75
2023/09/12 12:52:09;;;;;;;2.65;1.88;;;;;;;;;;5813958;28;20049;-73
2023/09/12 12:55:10;;;;;;;3.85;2.10;;;;;;;;;;5802654;28;20047;-76
2023/09/12 12:58:06;;;;;;;2.92;1.60;;;;;;;;;;5798243;28;20118;-77
2023/09/12 13:00:57;;;;;;;4.18;1.73;;;;;;;;;;5810861;28;20486;-77
2023/09/12 13:03:49;;;;;;;3.42;2.20;;;;;;;;;;5815384;28;20062;-75
2023/09/12 13:06:41;;;;;;;4.00;2.00;;;;;;;;;;5797657;28;20580;-75
2023/09/12 13:09:33;;;;;;;15.30;1.95;;;;;;;;;;5799046;28;20178;-76
2023/09/12 13:12:24;;;;;;;6.13;1.67;;;;;;;;;;5799370;28;20130;-77
2023/09/12 13:15:17;;;;;;;2.80;1.30;;;;;;;;;;5799696;28;20497;-76
2023/09/12 13:18:07;;;;;;;3.22;2.20;;;;;;;;;;5798303;28;20133;-76
2023/09/12 13:20:58;;;;;;;10.13;1.85;;;;;;;;;;5798759;28;20101;-76
2023/09/12 13:23:49;;;;;;;22.63;3.15;;;;;;;;;;5799747;28;20097;-76
2023/09/12 13:26:40;;;;;;;3.15;2.20;;;;;;;;;;5799224;28;20047;-75
2023/09/12 13:29:31;;;;;;;3.63;2.33;;;;;;;;;;5799885;28;20053;-76
2023/09/12 13:32:22;;;;;;;4.40;2.38;;;;;;;;;;5798882;28;20517;-75
2023/09/12 13:35:12;;;;;;;2.08;1.70;;;;;;;;;;5799293;28;20062;-75
2023/09/12 13:38:09;;;;;;;6.07;1.75;;;;;;;;;;5799252;28;20043;-75
2023/09/12 13:40:59;;;;;;;4.30;2.00;;;;;;;;;;5799507;28;20051;-76
2023/09/12 13:43:50;;;;;;;4.68;2.25;;;;;;;;;;5798039;28;20043;-75
2023/09/12 13:46:44;;;;;;;3.90;2.00;;;;;;;;;;5799067;28;20364;-76
2023/09/12 13:49:35;;;;;;;4.93;1.83;;;;;;;;;;5798803;28;20105;-75
2023/09/12 13:52:28;;;;;;;5.40;3.05;;;;;;;;;;5781761;28;20054;-75
2023/09/12 13:55:19;;;;;;;5.20;2.05;;;;;;;;;;5798894;28;20046;-76
2023/09/12 13:58:29;;;;;;;4.47;2.67;;;;;;;;;;5798653;28;20101;-76
2023/09/12 14:01:34;;;;;;;2.50;1.88;;;;;;;;;;5798946;28;20126;-75
2023/09/12 14:04:25;;;;;;;9.68;1.40;;;;;;;;;;5798869;28;20414;-77
2023/09/12 14:07:17;;;;;;;2.35;1.77;;;;;;;;;;5797375;28;20532;-76
2023/09/12 14:10:09;;;;;;;3.83;1.90;;;;;;;;;;5798562;28;20050;-76
2023/09/12 14:13:02;;;;;;;1.73;1.05;;;;;;;;;;5798721;28;20548;-77
2023/09/12 14:16:11;;;;;;;3.97;1.90;;;;;;;;;;5797250;28;20062;-77
2023/09/12 14:19:02;;;;;;;4.55;2.20;;;;;;;;;;5797070;28;20182;-76
2023/09/12 14:21:53;;;;;;;13.98;1.85;;;;;;;;;;5798799;28;20194;-77
2023/09/12 14:24:45;;;;;;;2.25;1.48;;;;;;;;;;5798072;28;20049;-77
2023/09/12 14:27:36;;;;;;;2.10;1.80;;;;;;;;;;5797923;28;20155;-75
2023/09/12 14:30:34;;;;;;;5.57;1.73;;;;;;;;;;5798285;28;20142;-75
2023/09/12 14:33:25;;;;;;;6.22;2.78;;;;;;;;;;5798256;28;20090;-76
2023/09/12 14:36:16;;;;;;;2.05;1.65;;;;;;;;;;5797942;28;20062;-76
2023/09/12 14:39:07;;;;;;;11.52;2.05;;;;;;;;;;5796470;28;20410;-76
2023/09/12 14:41:59;;;;;;;5.75;2.00;;;;;;;;;;5797947;28;20049;-75
2023/09/12 14:44:50;;;;;;;2.53;1.90;;;;;;;;;;5797880;28;20061;-77
2023/09/12 14:47:40;;;;;;;1.95;1.65;;;;;;;;;;5797567;28;20522;-76
2023/09/12 14:50:31;;;;;;;2.97;1.67;;;;;;;;;;5809746;28;21748;-76
2023/09/12 14:53:32;;;;;;;3.55;1.70;;;;;;;;;;5796142;28;20050;-76
2023/09/12 14:56:23;;;;;;;9.25;2.10;;;;;;;;;;5833333;28;20042;-75
2023/09/12 14:59:16;;;;;;;3.28;2.33;;;;;;;;;;5819423;28;20042;-75
2023/09/12 15:02:07;;;;;;;4.95;2.30;;;;;;;;;;5819414;28;20125;-75
2023/09/12 15:05:00;;;;;;;5.13;2.05;;;;;;;;;;5820151;28;20132;-75
2023/09/12 15:07:51;;;;;;;4.85;2.30;;;;;;;;;;5819640;28;20182;-76
2023/09/12 15:10:42;;;;;;;3.85;1.42;;;;;;;;;;5819066;28;20048;-76
2023/09/12 15:13:32;;;;;;;2.88;1.83;;;;;;;;;;5819780;28;20515;-75
2023/09/12 15:16:34;;;;;;;57.10;26.83;;;;;;;;;;5819498;28;20050;-75
2023/09/12 15:19:25;;;;;;;69.55;27.48;;;;;;;;;;5818645;28;20042;-76
2023/09/12 15:22:16;;;;;;;6.20;3.47;;;;;;;;;;5819051;28;20421;-75
2023/09/12 15:25:07;;;;;;;24.58;3.30;;;;;;;;;;5818289;28;20047;-76
2023/09/12 15:27:58;;;;;;;10.73;4.38;;;;;;;;;;5819387;28;20054;-75
2023/09/12 15:30:50;;;;;;;2.38;1.88;;;;;;;;;;5816815;28;20054;-75
2023/09/12 15:33:41;;;;;;;4.30;2.70;;;;;;;;;;5819172;28;20050;-77
2023/09/12 15:36:43;;;;;;;5.13;2.17;;;;;;;;;;5795169;28;20093;-75
2023/09/12 15:39:34;;;;;;;6.55;3.13;;;;;;;;;;5801727;28;20473;-75
2023/09/12 15:42:24;;;;;;;5.55;3.15;;;;;;;;;;5818533;28;20105;-75
2023/09/12 15:45:24;;;;;;;4.07;2.88;;;;;;;;;;5818742;28;20046;-75
2023/09/12 15:48:23;;;;;;;8.07;3.78;;;;;;;;;;5818618;28;20038;-76
2023/09/12 15:51:15;;;;;;;8.38;2.42;;;;;;;;;;5818197;28;20077;-75
2023/09/12 15:54:05;;;;;;;4.30;2.58;;;;;;;;;;5818462;28;20053;-77
2023/09/12 15:56:56;;;;;;;7.10;2.30;;;;;;;;;;5818929;28;20050;-76
2023/09/12 15:59:48;;;;;;;3.53;2.55;;;;;;;;;;5818312;28;20073;-76
2023/09/12 16:02:40;;;;;;;5.07;2.30;;;;;;;;;;5817937;28;20050;-76
2023/09/12 16:05:31;;;;;;;2.65;2.22;;;;;;;;;;5816532;28;20525;-74
2023/09/12 16:08:22;;;;;;;5.72;2.58;;;;;;;;;;5818560;28;20483;-75
2023/09/12 16:11:16;;;;;;;2.03;1.52;;;;;;;;;;5817963;28;20058;-77
2023/09/12 16:14:07;;;;;;;3.85;2.17;;;;;;;;;;5818206;28;20042;-74
2023/09/12 16:16:57;;;;;;;9.18;4.03;;;;;;;;;;5818864;28;20051;-74
2023/09/12 16:19:51;;;;;;;4.15;2.80;;;;;;;;;;5818267;28;20045;-74
2023/09/12 16:22:42;;;;;;;5.43;3.20;;;;;;;;;;5817723;28;20058;-74
2023/09/12 16:25:33;;;;;;;8.70;3.72;;;;;;;;;;5800639;28;20042;-74
2023/09/12 16:28:25;;;;;;;27.08;7.63;;;;;;;;;;5818363;28;20129;-75
2023/09/12 16:31:15;;;;;;;18.88;5.22;;;;;;;;;;5815682;28;20504;-74
2023/09/12 16:34:06;;;;;;;21.83;6.03;;;;;;;;;;5818151;28;20053;-74
2023/09/12 16:36:58;;;;;;;10.60;4.80;;;;;;;;;;5817074;28;20046;-74
2023/09/12 16:39:49;;;;;;;7.78;2.88;;;;;;;;;;5816574;28;20066;-74
2023/09/12 16:42:40;;;;;;;4.72;2.67;;;;;;;;;;5817784;28;20042;-74
2023/09/12 16:45:31;;;;;;;4.85;2.45;;;;;;;;;;5816358;28;20136;-76
2023/09/12 16:48:22;;;;;;;11.57;2.58;;;;;;;;;;5816737;28;20047;-75
2023/09/12 16:51:13;;;;;;;4.13;2.20;;;;;;;;;;5817564;28;20502;-75
2023/09/12 16:54:04;;;;;;;5.90;2.55;;;;;;;;;;5816990;28;20066;-74
2023/09/12 16:56:54;;;;;;;5.32;3.05;;;;;;;;;;5817551;28;20526;-76
2023/09/12 16:59:45;;;;;;;7.05;2.75;;;;;;;;;;5815436;28;20262;-75
2023/09/12 17:02:38;;;;;;;4.40;3.10;;;;;;;;;;5815416;28;20053;-75
2023/09/12 17:05:29;;;;;;;3.88;2.25;;;;;;;;;;5801906;28;20051;-75
2023/09/12 17:08:19;;;;;;;3.15;2.33;;;;;;;;;;5793807;28;20055;-76
2023/09/12 17:11:10;;;;;;;7.97;2.67;;;;;;;;;;5797545;28;20057;-75